sensor_id;sensor_type;location;lat;lon;timestamp;P1;durP1;ratioP1;P2;durP2;ratioP2
52458;SDS011;38372;52.902;6.024;2023-04-06T00:00:56;2.22;;;0.68;;
52458;SDS011;38372;52.902;6.024;2023-04-06T00:03:24;1.00;;;0.90;;
52458;SDS011;38372;52.902;6.024;2023-04-06T00:05:51;1.23;;;0.75;;
52458;SDS011;38372;52.902;6.024;2023-04-06T00:08:18;1.17;;;0.93;;
52458;SDS011;38372;52.902;6.024;2023-04-06T00:10:46;1.63;;;1.02;;
52458;SDS011;38372;52.902;6.024;2023-04-06T00:13:13;1.40;;;0.73;;
52458;SDS011;38372;52.902;6.024;2023-04-06T00:15:40;1.00;;;0.93;;
52458;SDS011;38372;52.902;6.024;2023-04-06T00:18:08;2.20;;;0.73;;
52458;SDS011;38372;52.902;6.024;2023-04-06T00:20:36;1.13;;;0.77;;
52458;SDS011;38372;52.902;6.024;2023-04-06T00:23:04;1.48;;;1.17;;
52458;SDS011;38372;52.902;6.024;2023-04-06T00:25:32;0.50;;;0.50;;
52458;SDS011;38372;52.902;6.024;2023-04-06T00:28:00;1.52;;;0.50;;
52458;SDS011;38372;52.902;6.024;2023-04-06T00:30:28;0.93;;;0.73;;
52458;SDS011;38372;52.902;6.024;2023-04-06T00:32:54;2.08;;;0.88;;
52458;SDS011;38372;52.902;6.024;2023-04-06T00:35:21;7.18;;;1.27;;
52458;SDS011;38372;52.902;6.024;2023-04-06T00:37:47;1.85;;;0.90;;
52458;SDS011;38372;52.902;6.024;2023-04-06T00:40:15;0.60;;;0.60;;
52458;SDS011;38372;52.902;6.024;2023-04-06T00:42:43;0.95;;;0.65;;
52458;SDS011;38372;52.902;6.024;2023-04-06T00:45:11;1.63;;;0.70;;
52458;SDS011;38372;52.902;6.024;2023-04-06T00:47:39;2.42;;;1.10;;
52458;SDS011;38372;52.902;6.024;2023-04-06T00:50:07;0.98;;;0.60;;
52458;SDS011;38372;52.902;6.024;2023-04-06T00:52:33;1.83;;;0.80;;
52458;SDS011;38372;52.902;6.024;2023-04-06T00:55:02;1.00;;;0.70;;
52458;SDS011;38372;52.902;6.024;2023-04-06T00:57:31;1.35;;;1.17;;
52458;SDS011;38372;52.902;6.024;2023-04-06T00:59:59;2.47;;;1.10;;
52458;SDS011;38372;52.902;6.024;2023-04-06T01:02:28;1.40;;;0.80;;
52458;SDS011;38372;52.902;6.024;2023-04-06T01:04:55;0.75;;;0.73;;
52458;SDS011;38372;52.902;6.024;2023-04-06T01:07:22;1.25;;;0.95;;
52458;SDS011;38372;52.902;6.024;2023-04-06T01:09:50;0.90;;;0.80;;
52458;SDS011;38372;52.902;6.024;2023-04-06T01:12:18;0.75;;;0.57;;
52458;SDS011;38372;52.902;6.024;2023-04-06T01:14:45;2.33;;;1.20;;
52458;SDS011;38372;52.902;6.024;2023-04-06T01:17:14;1.42;;;0.82;;
52458;SDS011;38372;52.902;6.024;2023-04-06T01:19:42;0.73;;;0.63;;
52458;SDS011;38372;52.902;6.024;2023-04-06T01:22:14;1.95;;;1.23;;
52458;SDS011;38372;52.902;6.024;2023-04-06T01:24:43;4.97;;;1.33;;
52458;SDS011;38372;52.902;6.024;2023-04-06T01:27:12;2.33;;;1.67;;
52458;SDS011;38372;52.902;6.024;2023-04-06T01:29:40;7.40;;;1.38;;
52458;SDS011;38372;52.902;6.024;2023-04-06T01:32:08;1.73;;;0.82;;
52458;SDS011;38372;52.902;6.024;2023-04-06T01:34:36;2.38;;;1.45;;
52458;SDS011;38372;52.902;6.024;2023-04-06T01:37:04;0.57;;;0.57;;
52458;SDS011;38372;52.902;6.024;2023-04-06T01:39:31;1.50;;;1.20;;
52458;SDS011;38372;52.902;6.024;2023-04-06T01:41:58;1.70;;;0.73;;
52458;SDS011;38372;52.902;6.024;2023-04-06T01:44:26;2.00;;;1.35;;
52458;SDS011;38372;52.902;6.024;2023-04-06T01:46:54;0.47;;;0.47;;
52458;SDS011;38372;52.902;6.024;2023-04-06T01:49:23;3.50;;;1.05;;
52458;SDS011;38372;52.902;6.024;2023-04-06T01:51:51;0.40;;;0.40;;
52458;SDS011;38372;52.902;6.024;2023-04-06T01:54:19;0.95;;;0.40;;
52458;SDS011;38372;52.902;6.024;2023-04-06T01:56:47;0.52;;;0.47;;
52458;SDS011;38372;52.902;6.024;2023-04-06T01:59:15;0.47;;;0.47;;
52458;SDS011;38372;52.902;6.024;2023-04-06T02:01:43;0.60;;;0.60;;
52458;SDS011;38372;52.902;6.024;2023-04-06T02:04:11;1.35;;;0.93;;
52458;SDS011;38372;52.902;6.024;2023-04-06T02:06:39;1.63;;;0.75;;
52458;SDS011;38372;52.902;6.024;2023-04-06T02:09:06;1.75;;;1.23;;
52458;SDS011;38372;52.902;6.024;2023-04-06T02:11:35;1.83;;;1.35;;
52458;SDS011;38372;52.902;6.024;2023-04-06T02:14:02;0.68;;;0.50;;
52458;SDS011;38372;52.902;6.024;2023-04-06T02:16:30;1.55;;;0.65;;
52458;SDS011;38372;52.902;6.024;2023-04-06T02:18:58;1.25;;;0.98;;
52458;SDS011;38372;52.902;6.024;2023-04-06T02:21:26;1.08;;;0.63;;
52458;SDS011;38372;52.902;6.024;2023-04-06T02:23:53;0.75;;;0.60;;
52458;SDS011;38372;52.902;6.024;2023-04-06T02:26:22;1.48;;;1.02;;
52458;SDS011;38372;52.902;6.024;2023-04-06T02:28:49;1.15;;;1.05;;
52458;SDS011;38372;52.902;6.024;2023-04-06T02:31:15;2.85;;;0.85;;
52458;SDS011;38372;52.902;6.024;2023-04-06T02:33:42;1.25;;;0.80;;
52458;SDS011;38372;52.902;6.024;2023-04-06T02:36:10;1.98;;;0.88;;
52458;SDS011;38372;52.902;6.024;2023-04-06T02:38:37;1.23;;;0.52;;
52458;SDS011;38372;52.902;6.024;2023-04-06T02:41:06;2.42;;;1.27;;
52458;SDS011;38372;52.902;6.024;2023-04-06T02:43:32;1.23;;;1.10;;
52458;SDS011;38372;52.902;6.024;2023-04-06T02:46:01;1.85;;;1.00;;
52458;SDS011;38372;52.902;6.024;2023-04-06T02:48:29;1.67;;;1.23;;
52458;SDS011;38372;52.902;6.024;2023-04-06T02:50:57;2.08;;;1.08;;
52458;SDS011;38372;52.902;6.024;2023-04-06T02:53:25;0.68;;;0.68;;
52458;SDS011;38372;52.902;6.024;2023-04-06T02:55:53;2.28;;;1.23;;
52458;SDS011;38372;52.902;6.024;2023-04-06T02:58:21;2.83;;;0.55;;
52458;SDS011;38372;52.902;6.024;2023-04-06T03:00:48;0.43;;;0.43;;
52458;SDS011;38372;52.902;6.024;2023-04-06T03:03:16;0.70;;;0.55;;
52458;SDS011;38372;52.902;6.024;2023-04-06T03:05:44;4.15;;;0.73;;
52458;SDS011;38372;52.902;6.024;2023-04-06T03:08:12;1.20;;;0.82;;
52458;SDS011;38372;52.902;6.024;2023-04-06T03:10:39;1.17;;;0.70;;
52458;SDS011;38372;52.902;6.024;2023-04-06T03:13:07;2.85;;;1.13;;
52458;SDS011;38372;52.902;6.024;2023-04-06T03:15:35;1.52;;;0.75;;
52458;SDS011;38372;52.902;6.024;2023-04-06T03:18:03;1.35;;;0.95;;
52458;SDS011;38372;52.902;6.024;2023-04-06T03:20:31;1.00;;;0.77;;
52458;SDS011;38372;52.902;6.024;2023-04-06T03:22:59;1.13;;;0.80;;
52458;SDS011;38372;52.902;6.024;2023-04-06T03:25:27;1.50;;;0.82;;
52458;SDS011;38372;52.902;6.024;2023-04-06T03:27:55;3.13;;;1.85;;
52458;SDS011;38372;52.902;6.024;2023-04-06T03:30:23;1.75;;;1.20;;
52458;SDS011;38372;52.902;6.024;2023-04-06T03:32:51;1.52;;;0.88;;
52458;SDS011;38372;52.902;6.024;2023-04-06T03:35:18;0.88;;;0.70;;
52458;SDS011;38372;52.902;6.024;2023-04-06T03:37:45;1.65;;;1.50;;
52458;SDS011;38372;52.902;6.024;2023-04-06T03:40:13;6.55;;;1.42;;
52458;SDS011;38372;52.902;6.024;2023-04-06T03:42:41;2.15;;;1.00;;
52458;SDS011;38372;52.902;6.024;2023-04-06T03:45:09;1.67;;;0.95;;
52458;SDS011;38372;52.902;6.024;2023-04-06T03:47:38;0.60;;;0.60;;
52458;SDS011;38372;52.902;6.024;2023-04-06T03:50:06;1.13;;;0.88;;
52458;SDS011;38372;52.902;6.024;2023-04-06T03:52:34;0.93;;;0.88;;
52458;SDS011;38372;52.902;6.024;2023-04-06T03:55:03;2.00;;;1.90;;
52458;SDS011;38372;52.902;6.024;2023-04-06T03:57:30;1.67;;;1.25;;
52458;SDS011;38372;52.902;6.024;2023-04-06T03:59:58;1.25;;;0.70;;
52458;SDS011;38372;52.902;6.024;2023-04-06T04:02:24;0.90;;;0.75;;
52458;SDS011;38372;52.902;6.024;2023-04-06T04:04:50;0.70;;;0.60;;
52458;SDS011;38372;52.902;6.024;2023-04-06T04:07:19;1.17;;;0.93;;
52458;SDS011;38372;52.902;6.024;2023-04-06T04:09:45;1.02;;;0.63;;
52458;SDS011;38372;52.902;6.024;2023-04-06T04:12:13;2.08;;;0.88;;
52458;SDS011;38372;52.902;6.024;2023-04-06T04:14:41;1.80;;;1.08;;
52458;SDS011;38372;52.902;6.024;2023-04-06T04:17:10;3.22;;;1.48;;
52458;SDS011;38372;52.902;6.024;2023-04-06T04:19:36;1.98;;;1.35;;
52458;SDS011;38372;52.902;6.024;2023-04-06T04:22:04;2.35;;;1.13;;
52458;SDS011;38372;52.902;6.024;2023-04-06T04:24:31;3.45;;;1.98;;
52458;SDS011;38372;52.902;6.024;2023-04-06T04:27:00;1.25;;;0.80;;
52458;SDS011;38372;52.902;6.024;2023-04-06T04:29:30;2.22;;;1.33;;
52458;SDS011;38372;52.902;6.024;2023-04-06T04:31:58;3.38;;;1.15;;
52458;SDS011;38372;52.902;6.024;2023-04-06T04:34:26;1.83;;;0.77;;
52458;SDS011;38372;52.902;6.024;2023-04-06T04:36:54;2.50;;;1.63;;
52458;SDS011;38372;52.902;6.024;2023-04-06T04:39:22;2.60;;;1.08;;
52458;SDS011;38372;52.902;6.024;2023-04-06T04:41:49;1.48;;;1.10;;
52458;SDS011;38372;52.902;6.024;2023-04-06T04:44:16;1.00;;;0.88;;
52458;SDS011;38372;52.902;6.024;2023-04-06T04:46:43;1.25;;;0.93;;
52458;SDS011;38372;52.902;6.024;2023-04-06T04:49:11;4.45;;;1.50;;
52458;SDS011;38372;52.902;6.024;2023-04-06T04:51:39;0.73;;;0.60;;
52458;SDS011;38372;52.902;6.024;2023-04-06T04:54:07;1.48;;;0.88;;
52458;SDS011;38372;52.902;6.024;2023-04-06T04:56:33;3.83;;;1.27;;
52458;SDS011;38372;52.902;6.024;2023-04-06T04:59:01;1.23;;;0.93;;
52458;SDS011;38372;52.902;6.024;2023-04-06T05:01:29;2.03;;;1.38;;
52458;SDS011;38372;52.902;6.024;2023-04-06T05:03:57;2.72;;;0.88;;
52458;SDS011;38372;52.902;6.024;2023-04-06T05:06:25;2.88;;;1.13;;
52458;SDS011;38372;52.902;6.024;2023-04-06T05:08:53;3.92;;;1.00;;
52458;SDS011;38372;52.902;6.024;2023-04-06T05:11:21;0.95;;;0.73;;
52458;SDS011;38372;52.902;6.024;2023-04-06T05:13:49;3.72;;;2.08;;
52458;SDS011;38372;52.902;6.024;2023-04-06T05:16:17;2.15;;;1.05;;
52458;SDS011;38372;52.902;6.024;2023-04-06T05:18:45;0.82;;;0.65;;
52458;SDS011;38372;52.902;6.024;2023-04-06T05:21:15;1.33;;;0.80;;
52458;SDS011;38372;52.902;6.024;2023-04-06T05:23:43;1.95;;;1.20;;
52458;SDS011;38372;52.902;6.024;2023-04-06T05:26:11;0.50;;;0.50;;
52458;SDS011;38372;52.902;6.024;2023-04-06T05:28:39;0.90;;;0.90;;
52458;SDS011;38372;52.902;6.024;2023-04-06T05:31:07;2.88;;;1.23;;
52458;SDS011;38372;52.902;6.024;2023-04-06T05:33:34;2.53;;;1.77;;
52458;SDS011;38372;52.902;6.024;2023-04-06T05:36:02;2.40;;;0.93;;
52458;SDS011;38372;52.902;6.024;2023-04-06T05:38:30;2.72;;;0.68;;
52458;SDS011;38372;52.902;6.024;2023-04-06T05:40:58;3.22;;;1.48;;
52458;SDS011;38372;52.902;6.024;2023-04-06T05:43:26;1.20;;;0.85;;
52458;SDS011;38372;52.902;6.024;2023-04-06T05:45:54;1.63;;;0.73;;
52458;SDS011;38372;52.902;6.024;2023-04-06T05:48:22;2.40;;;1.17;;
52458;SDS011;38372;52.902;6.024;2023-04-06T05:50:49;2.00;;;1.33;;
52458;SDS011;38372;52.902;6.024;2023-04-06T05:53:18;0.90;;;0.82;;
52458;SDS011;38372;52.902;6.024;2023-04-06T05:55:46;2.70;;;1.40;;
52458;SDS011;38372;52.902;6.024;2023-04-06T05:58:14;1.20;;;1.00;;
52458;SDS011;38372;52.902;6.024;2023-04-06T06:00:42;2.45;;;0.68;;
52458;SDS011;38372;52.902;6.024;2023-04-06T06:03:10;3.30;;;1.60;;
52458;SDS011;38372;52.902;6.024;2023-04-06T06:05:39;1.40;;;1.00;;
52458;SDS011;38372;52.902;6.024;2023-04-06T06:08:07;2.95;;;1.42;;
52458;SDS011;38372;52.902;6.024;2023-04-06T06:10:35;3.72;;;1.17;;
52458;SDS011;38372;52.902;6.024;2023-04-06T06:13:03;2.58;;;1.88;;
52458;SDS011;38372;52.902;6.024;2023-04-06T06:15:31;2.15;;;1.95;;
52458;SDS011;38372;52.902;6.024;2023-04-06T06:17:57;1.98;;;1.58;;
52458;SDS011;38372;52.902;6.024;2023-04-06T06:20:24;1.95;;;1.58;;
52458;SDS011;38372;52.902;6.024;2023-04-06T06:22:52;2.08;;;1.23;;
52458;SDS011;38372;52.902;6.024;2023-04-06T06:25:19;1.65;;;0.90;;
52458;SDS011;38372;52.902;6.024;2023-04-06T06:27:47;1.20;;;1.10;;
52458;SDS011;38372;52.902;6.024;2023-04-06T06:30:15;2.65;;;1.80;;
52458;SDS011;38372;52.902;6.024;2023-04-06T06:32:43;5.15;;;1.73;;
52458;SDS011;38372;52.902;6.024;2023-04-06T06:35:11;2.58;;;1.70;;
52458;SDS011;38372;52.902;6.024;2023-04-06T06:37:39;5.57;;;1.83;;
52458;SDS011;38372;52.902;6.024;2023-04-06T06:40:08;3.15;;;1.27;;
52458;SDS011;38372;52.902;6.024;2023-04-06T06:42:35;2.90;;;1.67;;
52458;SDS011;38372;52.902;6.024;2023-04-06T06:45:03;1.73;;;1.05;;
52458;SDS011;38372;52.902;6.024;2023-04-06T06:47:30;3.38;;;1.42;;
52458;SDS011;38372;52.902;6.024;2023-04-06T06:49:58;4.32;;;2.22;;
52458;SDS011;38372;52.902;6.024;2023-04-06T06:52:26;7.75;;;2.03;;
52458;SDS011;38372;52.902;6.024;2023-04-06T06:54:53;1.60;;;0.93;;
52458;SDS011;38372;52.902;6.024;2023-04-06T06:57:21;2.70;;;2.17;;
52458;SDS011;38372;52.902;6.024;2023-04-06T06:59:47;4.85;;;2.47;;
52458;SDS011;38372;52.902;6.024;2023-04-06T07:02:14;2.38;;;1.67;;
52458;SDS011;38372;52.902;6.024;2023-04-06T07:04:42;3.65;;;1.65;;
52458;SDS011;38372;52.902;6.024;2023-04-06T07:07:10;4.32;;;2.55;;
52458;SDS011;38372;52.902;6.024;2023-04-06T07:09:38;4.35;;;1.90;;
52458;SDS011;38372;52.902;6.024;2023-04-06T07:12:05;2.70;;;1.70;;
52458;SDS011;38372;52.902;6.024;2023-04-06T07:14:34;4.00;;;2.53;;
52458;SDS011;38372;52.902;6.024;2023-04-06T07:17:02;5.00;;;2.28;;
52458;SDS011;38372;52.902;6.024;2023-04-06T07:19:29;6.75;;;1.52;;
52458;SDS011;38372;52.902;6.024;2023-04-06T07:21:56;7.85;;;2.75;;
52458;SDS011;38372;52.902;6.024;2023-04-06T07:24:24;5.07;;;2.67;;
52458;SDS011;38372;52.902;6.024;2023-04-06T07:26:52;3.97;;;1.92;;
52458;SDS011;38372;52.902;6.024;2023-04-06T07:29:20;4.30;;;2.58;;
52458;SDS011;38372;52.902;6.024;2023-04-06T07:31:47;3.60;;;1.85;;
52458;SDS011;38372;52.902;6.024;2023-04-06T07:34:15;2.80;;;1.50;;
52458;SDS011;38372;52.902;6.024;2023-04-06T07:36:43;3.20;;;1.40;;
52458;SDS011;38372;52.902;6.024;2023-04-06T07:39:10;5.10;;;2.13;;
52458;SDS011;38372;52.902;6.024;2023-04-06T07:41:38;2.67;;;1.65;;
52458;SDS011;38372;52.902;6.024;2023-04-06T07:44:06;5.07;;;2.00;;
52458;SDS011;38372;52.902;6.024;2023-04-06T07:46:33;4.15;;;2.20;;
52458;SDS011;38372;52.902;6.024;2023-04-06T07:49:00;5.25;;;2.60;;
52458;SDS011;38372;52.902;6.024;2023-04-06T07:51:29;6.35;;;2.38;;
52458;SDS011;38372;52.902;6.024;2023-04-06T07:53:55;6.13;;;2.00;;
52458;SDS011;38372;52.902;6.024;2023-04-06T07:56:24;6.38;;;1.92;;
52458;SDS011;38372;52.902;6.024;2023-04-06T07:58:52;3.03;;;1.85;;
52458;SDS011;38372;52.902;6.024;2023-04-06T08:01:20;4.53;;;2.08;;
52458;SDS011;38372;52.902;6.024;2023-04-06T08:03:46;4.78;;;2.50;;
52458;SDS011;38372;52.902;6.024;2023-04-06T08:06:12;6.43;;;2.22;;
52458;SDS011;38372;52.902;6.024;2023-04-06T08:08:37;4.95;;;2.92;;
52458;SDS011;38372;52.902;6.024;2023-04-06T08:11:03;6.93;;;2.50;;
52458;SDS011;38372;52.902;6.024;2023-04-06T08:13:29;7.13;;;2.55;;
52458;SDS011;38372;52.902;6.024;2023-04-06T08:15:57;4.82;;;3.22;;
52458;SDS011;38372;52.902;6.024;2023-04-06T08:18:27;4.50;;;2.70;;
52458;SDS011;38372;52.902;6.024;2023-04-06T08:20:55;6.57;;;2.90;;
52458;SDS011;38372;52.902;6.024;2023-04-06T08:23:21;6.32;;;2.90;;
52458;SDS011;38372;52.902;6.024;2023-04-06T08:25:49;6.65;;;3.13;;
52458;SDS011;38372;52.902;6.024;2023-04-06T08:28:17;3.45;;;1.77;;
52458;SDS011;38372;52.902;6.024;2023-04-06T08:30:43;6.82;;;2.72;;
52458;SDS011;38372;52.902;6.024;2023-04-06T08:33:10;6.43;;;3.22;;
52458;SDS011;38372;52.902;6.024;2023-04-06T08:35:38;3.90;;;2.65;;
52458;SDS011;38372;52.902;6.024;2023-04-06T08:38:06;4.40;;;2.53;;
52458;SDS011;38372;52.902;6.024;2023-04-06T08:40:37;4.93;;;3.58;;
52458;SDS011;38372;52.902;6.024;2023-04-06T08:43:05;5.25;;;3.63;;
52458;SDS011;38372;52.902;6.024;2023-04-06T08:45:34;8.02;;;3.40;;
52458;SDS011;38372;52.902;6.024;2023-04-06T08:48:02;6.07;;;3.47;;
52458;SDS011;38372;52.902;6.024;2023-04-06T08:50:29;6.32;;;3.55;;
52458;SDS011;38372;52.902;6.024;2023-04-06T08:52:57;5.95;;;3.78;;
52458;SDS011;38372;52.902;6.024;2023-04-06T08:55:26;8.52;;;3.60;;
52458;SDS011;38372;52.902;6.024;2023-04-06T08:57:55;6.85;;;3.75;;
52458;SDS011;38372;52.902;6.024;2023-04-06T09:00:23;3.83;;;2.53;;
52458;SDS011;38372;52.902;6.024;2023-04-06T09:02:50;8.75;;;3.15;;
52458;SDS011;38372;52.902;6.024;2023-04-06T09:05:21;6.40;;;4.10;;
52458;SDS011;38372;52.902;6.024;2023-04-06T09:07:51;7.25;;;4.15;;
52458;SDS011;38372;52.902;6.024;2023-04-06T09:10:18;6.88;;;3.08;;
52458;SDS011;38372;52.902;6.024;2023-04-06T09:12:45;8.55;;;4.22;;
52458;SDS011;38372;52.902;6.024;2023-04-06T09:15:20;8.38;;;3.25;;
52458;SDS011;38372;52.902;6.024;2023-04-06T09:17:48;8.23;;;3.92;;
52458;SDS011;38372;52.902;6.024;2023-04-06T09:20:21;5.30;;;2.95;;
52458;SDS011;38372;52.902;6.024;2023-04-06T09:22:50;4.47;;;2.92;;
52458;SDS011;38372;52.902;6.024;2023-04-06T09:25:18;6.95;;;3.55;;
52458;SDS011;38372;52.902;6.024;2023-04-06T09:27:48;10.75;;;4.55;;
52458;SDS011;38372;52.902;6.024;2023-04-06T09:30:28;6.53;;;3.75;;
52458;SDS011;38372;52.902;6.024;2023-04-06T09:32:57;5.85;;;2.72;;
52458;SDS011;38372;52.902;6.024;2023-04-06T09:35:25;8.10;;;4.93;;
52458;SDS011;38372;52.902;6.024;2023-04-06T09:37:56;8.43;;;3.72;;
52458;SDS011;38372;52.902;6.024;2023-04-06T09:40:22;5.03;;;2.95;;
52458;SDS011;38372;52.902;6.024;2023-04-06T09:42:50;9.38;;;4.18;;
52458;SDS011;38372;52.902;6.024;2023-04-06T09:45:18;5.78;;;3.08;;
52458;SDS011;38372;52.902;6.024;2023-04-06T09:47:46;6.70;;;3.10;;
52458;SDS011;38372;52.902;6.024;2023-04-06T09:50:14;15.40;;;4.68;;
52458;SDS011;38372;52.902;6.024;2023-04-06T09:52:46;5.22;;;3.53;;
52458;SDS011;38372;52.902;6.024;2023-04-06T09:55:34;7.10;;;4.07;;
52458;SDS011;38372;52.902;6.024;2023-04-06T09:58:06;12.45;;;4.65;;
52458;SDS011;38372;52.902;6.024;2023-04-06T10:00:47;8.20;;;4.95;;
52458;SDS011;38372;52.902;6.024;2023-04-06T10:03:21;4.10;;;2.72;;
52458;SDS011;38372;52.902;6.024;2023-04-06T10:06:14;4.72;;;3.70;;
52458;SDS011;38372;52.902;6.024;2023-04-06T10:08:44;5.53;;;3.30;;
52458;SDS011;38372;52.902;6.024;2023-04-06T10:11:13;9.35;;;4.80;;
52458;SDS011;38372;52.902;6.024;2023-04-06T10:13:42;9.85;;;3.67;;
52458;SDS011;38372;52.902;6.024;2023-04-06T10:16:12;6.85;;;3.63;;
52458;SDS011;38372;52.902;6.024;2023-04-06T10:18:41;5.97;;;4.30;;
52458;SDS011;38372;52.902;6.024;2023-04-06T10:21:14;9.75;;;4.65;;
52458;SDS011;38372;52.902;6.024;2023-04-06T10:23:48;6.05;;;3.20;;
52458;SDS011;38372;52.902;6.024;2023-04-06T10:26:21;6.13;;;3.45;;
52458;SDS011;38372;52.902;6.024;2023-04-06T10:28:48;10.43;;;6.30;;
52458;SDS011;38372;52.902;6.024;2023-04-06T10:31:26;8.85;;;3.30;;
52458;SDS011;38372;52.902;6.024;2023-04-06T10:33:54;6.35;;;3.40;;
52458;SDS011;38372;52.902;6.024;2023-04-06T10:36:22;8.50;;;4.57;;
52458;SDS011;38372;52.902;6.024;2023-04-06T10:38:57;8.55;;;4.47;;
52458;SDS011;38372;52.902;6.024;2023-04-06T10:44:01;7.45;;;3.63;;
52458;SDS011;38372;52.902;6.024;2023-04-06T10:46:30;10.60;;;4.47;;
52458;SDS011;38372;52.902;6.024;2023-04-06T10:49:09;10.32;;;4.20;;
52458;SDS011;38372;52.902;6.024;2023-04-06T10:51:39;4.07;;;3.10;;
52458;SDS011;38372;52.902;6.024;2023-04-06T10:54:07;6.38;;;3.85;;
52458;SDS011;38372;52.902;6.024;2023-04-06T10:56:37;7.13;;;3.05;;
52458;SDS011;38372;52.902;6.024;2023-04-06T10:59:05;11.88;;;4.63;;
52458;SDS011;38372;52.902;6.024;2023-04-06T11:01:34;4.88;;;3.22;;
52458;SDS011;38372;52.902;6.024;2023-04-06T11:04:02;10.18;;;4.45;;
52458;SDS011;38372;52.902;6.024;2023-04-06T11:06:28;6.05;;;3.97;;
52458;SDS011;38372;52.902;6.024;2023-04-06T11:08:57;5.25;;;4.38;;
52458;SDS011;38372;52.902;6.024;2023-04-06T11:11:26;8.65;;;4.90;;
52458;SDS011;38372;52.902;6.024;2023-04-06T11:13:53;7.75;;;4.32;;
52458;SDS011;38372;52.902;6.024;2023-04-06T11:16:22;6.73;;;4.17;;
52458;SDS011;38372;52.902;6.024;2023-04-06T11:24:10;6.47;;;2.92;;
52458;SDS011;38372;52.902;6.024;2023-04-06T11:29:13;11.85;;;5.15;;
52458;SDS011;38372;52.902;6.024;2023-04-06T11:31:47;5.45;;;3.22;;
52458;SDS011;38372;52.902;6.024;2023-04-06T11:34:17;12.85;;;6.28;;
52458;SDS011;38372;52.902;6.024;2023-04-06T11:36:59;11.40;;;4.43;;
52458;SDS011;38372;52.902;6.024;2023-04-06T11:39:29;9.10;;;3.78;;
52458;SDS011;38372;52.902;6.024;2023-04-06T11:41:58;6.22;;;5.07;;
52458;SDS011;38372;52.902;6.024;2023-04-06T11:47:01;9.90;;;4.05;;
52458;SDS011;38372;52.902;6.024;2023-04-06T11:49:30;8.65;;;4.70;;
52458;SDS011;38372;52.902;6.024;2023-04-06T11:52:00;5.40;;;3.25;;
52458;SDS011;38372;52.902;6.024;2023-04-06T11:54:35;3.10;;;2.58;;
52458;SDS011;38372;52.902;6.024;2023-04-06T11:57:04;7.63;;;4.47;;
52458;SDS011;38372;52.902;6.024;2023-04-06T11:59:33;7.07;;;4.55;;
52458;SDS011;38372;52.902;6.024;2023-04-06T12:02:02;5.20;;;3.10;;
52458;SDS011;38372;52.902;6.024;2023-04-06T12:04:30;10.10;;;4.73;;
52458;SDS011;38372;52.902;6.024;2023-04-06T12:06:57;12.88;;;6.93;;
52458;SDS011;38372;52.902;6.024;2023-04-06T12:09:23;10.18;;;4.68;;
52458;SDS011;38372;52.902;6.024;2023-04-06T12:11:49;9.18;;;4.20;;
52458;SDS011;38372;52.902;6.024;2023-04-06T12:14:17;10.68;;;4.43;;
52458;SDS011;38372;52.902;6.024;2023-04-06T12:16:45;8.57;;;2.67;;
52458;SDS011;38372;52.902;6.024;2023-04-06T12:19:13;7.10;;;4.82;;
52458;SDS011;38372;52.902;6.024;2023-04-06T12:21:39;11.50;;;4.10;;
52458;SDS011;38372;52.902;6.024;2023-04-06T12:24:07;8.52;;;4.40;;
52458;SDS011;38372;52.902;6.024;2023-04-06T12:26:35;8.32;;;3.63;;
52458;SDS011;38372;52.902;6.024;2023-04-06T12:29:03;4.72;;;2.58;;
52458;SDS011;38372;52.902;6.024;2023-04-06T12:31:34;6.28;;;2.40;;
52458;SDS011;38372;52.902;6.024;2023-04-06T12:34:03;4.95;;;3.00;;
52458;SDS011;38372;52.902;6.024;2023-04-06T12:36:31;7.03;;;2.22;;
52458;SDS011;38372;52.902;6.024;2023-04-06T12:38:59;4.88;;;1.85;;
52458;SDS011;38372;52.902;6.024;2023-04-06T12:41:28;3.75;;;2.08;;
52458;SDS011;38372;52.902;6.024;2023-04-06T12:43:57;3.20;;;1.83;;
52458;SDS011;38372;52.902;6.024;2023-04-06T12:46:26;4.90;;;3.37;;
52458;SDS011;38372;52.902;6.024;2023-04-06T12:48:54;4.07;;;2.67;;
52458;SDS011;38372;52.902;6.024;2023-04-06T12:51:22;5.75;;;3.08;;
52458;SDS011;38372;52.902;6.024;2023-04-06T12:53:50;8.55;;;3.88;;
52458;SDS011;38372;52.902;6.024;2023-04-06T12:56:18;4.65;;;2.97;;
52458;SDS011;38372;52.902;6.024;2023-04-06T12:58:46;7.05;;;2.55;;
52458;SDS011;38372;52.902;6.024;2023-04-06T13:01:14;4.28;;;2.42;;
52458;SDS011;38372;52.902;6.024;2023-04-06T13:03:42;7.13;;;3.05;;
52458;SDS011;38372;52.902;6.024;2023-04-06T13:06:12;6.53;;;3.30;;
52458;SDS011;38372;52.902;6.024;2023-04-06T13:08:40;6.45;;;3.45;;
52458;SDS011;38372;52.902;6.024;2023-04-06T13:11:08;8.07;;;3.25;;
52458;SDS011;38372;52.902;6.024;2023-04-06T13:13:36;6.00;;;3.58;;
52458;SDS011;38372;52.902;6.024;2023-04-06T13:16:05;4.30;;;2.80;;
52458;SDS011;38372;52.902;6.024;2023-04-06T13:18:35;5.40;;;3.85;;
52458;SDS011;38372;52.902;6.024;2023-04-06T13:21:03;5.05;;;2.08;;
52458;SDS011;38372;52.902;6.024;2023-04-06T13:23:32;6.65;;;3.00;;
52458;SDS011;38372;52.902;6.024;2023-04-06T13:26:04;2.45;;;1.75;;
52458;SDS011;38372;52.902;6.024;2023-04-06T13:28:33;4.50;;;2.35;;
52458;SDS011;38372;52.902;6.024;2023-04-06T13:31:02;7.82;;;2.85;;
52458;SDS011;38372;52.902;6.024;2023-04-06T13:33:31;5.90;;;2.40;;
52458;SDS011;38372;52.902;6.024;2023-04-06T13:35:59;3.60;;;2.47;;
52458;SDS011;38372;52.902;6.024;2023-04-06T13:38:27;5.07;;;3.22;;
52458;SDS011;38372;52.902;6.024;2023-04-06T13:40:55;6.93;;;2.80;;
52458;SDS011;38372;52.902;6.024;2023-04-06T13:43:23;3.00;;;1.73;;
52458;SDS011;38372;52.902;6.024;2023-04-06T13:45:55;5.85;;;3.20;;
52458;SDS011;38372;52.902;6.024;2023-04-06T13:48:24;5.78;;;3.22;;
52458;SDS011;38372;52.902;6.024;2023-04-06T13:50:53;4.38;;;2.20;;
52458;SDS011;38372;52.902;6.024;2023-04-06T13:53:20;3.90;;;2.45;;
52458;SDS011;38372;52.902;6.024;2023-04-06T13:55:52;6.57;;;2.65;;
52458;SDS011;38372;52.902;6.024;2023-04-06T14:00:45;6.30;;;2.40;;
52458;SDS011;38372;52.902;6.024;2023-04-06T14:03:13;3.95;;;2.67;;
52458;SDS011;38372;52.902;6.024;2023-04-06T14:05:40;5.60;;;2.38;;
52458;SDS011;38372;52.902;6.024;2023-04-06T14:08:08;8.07;;;3.13;;
52458;SDS011;38372;52.902;6.024;2023-04-06T14:10:37;6.03;;;3.78;;
52458;SDS011;38372;52.902;6.024;2023-04-06T14:15:32;6.90;;;3.38;;
52458;SDS011;38372;52.902;6.024;2023-04-06T14:18:01;8.70;;;5.82;;
52458;SDS011;38372;52.902;6.024;2023-04-06T14:20:32;8.93;;;4.53;;
52458;SDS011;38372;52.902;6.024;2023-04-06T14:23:02;13.73;;;11.13;;
52458;SDS011;38372;52.902;6.024;2023-04-06T14:25:31;14.55;;;4.65;;
52458;SDS011;38372;52.902;6.024;2023-04-06T14:27:59;3.92;;;3.22;;
52458;SDS011;38372;52.902;6.024;2023-04-06T14:30:29;5.47;;;4.07;;
52458;SDS011;38372;52.902;6.024;2023-04-06T14:32:57;4.25;;;3.22;;
52458;SDS011;38372;52.902;6.024;2023-04-06T14:35:25;5.15;;;3.90;;
52458;SDS011;38372;52.902;6.024;2023-04-06T14:37:53;5.90;;;3.85;;
52458;SDS011;38372;52.902;6.024;2023-04-06T14:40:21;7.93;;;4.82;;
52458;SDS011;38372;52.902;6.024;2023-04-06T14:42:49;7.75;;;3.72;;
52458;SDS011;38372;52.902;6.024;2023-04-06T14:45:19;5.47;;;4.07;;
52458;SDS011;38372;52.902;6.024;2023-04-06T14:47:47;4.03;;;3.15;;
52458;SDS011;38372;52.902;6.024;2023-04-06T14:50:15;6.07;;;3.60;;
52458;SDS011;38372;52.902;6.024;2023-04-06T14:52:43;5.65;;;4.25;;
52458;SDS011;38372;52.902;6.024;2023-04-06T14:55:11;6.32;;;3.03;;
52458;SDS011;38372;52.902;6.024;2023-04-06T14:57:39;6.68;;;3.28;;
52458;SDS011;38372;52.902;6.024;2023-04-06T15:00:06;8.98;;;4.18;;
52458;SDS011;38372;52.902;6.024;2023-04-06T15:02:34;4.22;;;3.80;;
52458;SDS011;38372;52.902;6.024;2023-04-06T15:05:02;6.95;;;3.75;;
52458;SDS011;38372;52.902;6.024;2023-04-06T15:07:30;3.97;;;3.20;;
52458;SDS011;38372;52.902;6.024;2023-04-06T15:09:58;3.08;;;2.75;;
52458;SDS011;38372;52.902;6.024;2023-04-06T15:12:26;3.55;;;2.95;;